Aérodrome :
LOGIN :

S'inscrire | Disclaimer

   EN    FR    IT 

 










Légende :    VFR   VFR Marginal   IFR   IFR Intensif   IFR Très Intensif
Visi : 
Plafond : 
>= 8 km
>= 3000ft
5 à 8 km
1000 à 3000 ft
1500m à 5 km
500 à 1000 ft
800 à 1500m
200 à 500 ft
< 800m
< 200 ft
Symboles :   Orages  Brouillard  Fortes neiges  Fortes précipitations  Vent > 20 kt
SIGMETs :   Divers  Orages  Givrage  Turbulence  Onde Orograph.  Cendres Volcan.






- Altitude de l'aérodrome : 686 ft


LYKV - Ladevci

DERNIER METAR :
  • 131930Z 00000KT CAVOK 12/12 Q1022 NOSIG

METARs EXPIRÉS :
  • 131900Z 06002KT CAVOK 15/13 Q1022 NOSIG
  • 131830Z VRB01KT CAVOK 13/13 Q1022 NOSIG
  • 131800Z 00000KT CAVOK 14/13 Q1022 NOSIG
  • 131730Z 33002KT CAVOK 16/13 Q1021 NOSIG
  • 131700Z 29002KT CAVOK 17/14 Q1021 NOSIG

TAF TAF LYKV
Valide du 13 à 18h jusqu'au 14 à 18h UTC


131700Z 1318/1418 VRB02KT CAVOK TX28/1313Z TN05/1405Z
BECMG 1401/1403 2000 BR
TEMPO 1403/1406 0500 FG
BECMG 1406/1408 9999 NSW



MET'MAP, la Météo Aéronautique d'un coup d'oeil ! - Copyright ORBIFLY Décembre 2007 - Disclaimer

ORBIFLY MET'MAP TEAM :

Programmation & Développement : Alexandra Zaïnal
Conception & Développement : Baudouin d'Aumeries
Co-Programmation & Développement : Marc-Olivier Méhu
Soutien technique & logistique : Manuel Goepfert

Contact : metmap@orbifly.com




SOURCES & CREDITS :

   NOAA